Time;durP1;ratioP1;P1;durP2;ratioP2;P2;SDS_P1;SDS_P2;PMS_P1;PMS_P2;Temp;Humidity;BMP_temperature;BMP_pressure;BME280_temperature;BME280_humidity;BME280_pressure;Samples;Min_cycle;Max_cycle;Signal;HPM_P1;HPM_P2
2022/03/03 00:00:38;;;;;;;155.60;44.77;;;;;;;-2.89;64.93;99261.98;2281401;78;21318;-84
2022/03/03 00:03:41;;;;;;;139.27;44.40;;;;;;;-2.96;64.86;99254.27;2260630;78;20992;-83
2022/03/03 00:06:41;;;;;;;114.30;45.00;;;;;;;-2.99;65.05;99256.99;2281667;78;20982;-82
2022/03/03 00:09:42;;;;;;;115.10;45.97;;;;;;;-2.98;65.14;99253.66;2281802;78;20929;-85
2022/03/03 00:12:42;;;;;;;117.63;45.17;;;;;;;-2.99;65.18;99256.61;2282011;78;20911;-83
2022/03/03 00:15:42;;;;;;;110.30;44.10;;;;;;;-3.02;65.26;99254.22;2282073;78;20969;-83
2022/03/03 00:18:43;;;;;;;121.70;41.73;;;;;;;-3.02;65.12;99250.39;2282062;78;20962;-83
2022/03/03 00:21:44;;;;;;;131.77;45.77;;;;;;;-3.13;65.16;99250.02;2282078;78;20921;-84
2022/03/03 00:24:44;;;;;;;110.57;41.77;;;;;;;-3.21;65.32;99250.36;2282314;78;20922;-84
2022/03/03 00:27:45;;;;;;;114.03;41.20;;;;;;;-3.23;65.65;99250.64;2282031;78;20919;-81
2022/03/03 00:30:45;;;;;;;331.00;57.20;;;;;;;-3.26;65.57;99244.03;2280400;78;20965;-78
2022/03/03 00:33:46;;;;;;;127.10;43.03;;;;;;;-3.35;65.83;99242.48;2280887;78;21024;-84
2022/03/03 00:36:46;;;;;;;107.33;40.57;;;;;;;-3.43;65.86;99238.11;2281008;78;21396;-83
2022/03/03 00:39:47;;;;;;;92.67;38.40;;;;;;;-3.46;66.09;99239.16;2281588;78;21411;-83
2022/03/03 00:42:47;;;;;;;162.57;41.93;;;;;;;-3.46;66.39;99234.45;2281648;78;20969;-83
2022/03/03 00:45:47;;;;;;;124.43;41.17;;;;;;;-3.46;66.21;99236.61;2281682;78;20942;-82
2022/03/03 00:48:48;;;;;;;145.33;40.90;;;;;;;-3.52;66.22;99225.53;2281624;78;20937;-81
2022/03/03 00:51:49;;;;;;;108.50;39.83;;;;;;;-3.58;66.11;99221.27;2281651;78;20911;-82
2022/03/03 00:54:49;;;;;;;113.23;40.17;;;;;;;-3.60;66.14;99223.20;2288537;77;20995;-83
2022/03/03 00:57:50;;;;;;;107.87;38.13;;;;;;;-3.59;66.17;99214.77;2291574;78;20916;-83
2022/03/03 01:00:50;;;;;;;102.80;39.77;;;;;;;-3.63;65.96;99217.88;2291469;78;20889;-83
2022/03/03 01:03:50;;;;;;;95.63;38.07;;;;;;;-3.66;66.18;99217.66;2291532;78;20924;-84
2022/03/03 01:06:51;;;;;;;105.80;39.07;;;;;;;-3.67;66.04;99217.16;2291326;78;21018;-81
2022/03/03 01:09:51;;;;;;;318.17;55.07;;;;;;;-3.71;66.12;99212.22;2291396;78;20889;-82
2022/03/03 01:12:52;;;;;;;199.50;47.23;;;;;;;-3.76;66.24;99209.72;2291584;78;20948;-83
2022/03/03 01:15:53;;;;;;;127.07;43.77;;;;;;;-3.82;66.22;99205.84;2291615;78;20916;-83
2022/03/03 01:18:54;;;;;;;129.97;43.43;;;;;;;-3.83;66.48;99208.77;2291434;78;20889;-82
2022/03/03 01:21:54;;;;;;;133.87;44.30;;;;;;;-3.81;66.55;99211.05;2291534;78;20995;-82
2022/03/03 01:24:55;;;;;;;133.70;46.00;;;;;;;-3.78;66.67;99217.65;2268320;78;21316;-83
2022/03/03 01:27:55;;;;;;;130.80;48.80;;;;;;;-3.78;66.63;99207.84;2291676;78;20908;-83
2022/03/03 01:30:56;;;;;;;135.17;49.53;;;;;;;-3.85;66.41;99207.39;2291636;78;20952;-82
2022/03/03 01:33:56;;;;;;;141.73;51.93;;;;;;;-3.90;66.65;99205.27;2291559;78;20972;-78
2022/03/03 01:36:57;;;;;;;242.03;59.77;;;;;;;-3.92;66.69;99197.52;2291186;78;21018;-83
2022/03/03 01:39:58;;;;;;;162.23;52.47;;;;;;;-3.93;66.54;99199.95;2291502;78;20947;-83
2022/03/03 01:42:58;;;;;;;149.80;51.60;;;;;;;-3.95;66.72;99201.11;2291631;78;20955;-82
2022/03/03 01:45:59;;;;;;;140.90;47.87;;;;;;;-3.94;66.73;99198.17;2291558;78;20951;-84
2022/03/03 01:48:59;;;;;;;119.03;43.47;;;;;;;-3.96;66.60;99198.06;2291715;78;20955;-82
2022/03/03 01:52:00;;;;;;;130.73;48.17;;;;;;;-4.01;66.83;99195.56;2291540;78;20908;-82
2022/03/03 01:55:00;;;;;;;235.10;100.23;;;;;;;-4.02;66.80;99200.16;2284407;78;20950;-82
2022/03/03 01:58:01;;;;;;;123.73;47.80;;;;;;;-3.99;66.69;99195.67;2281873;78;20902;-83
2022/03/03 02:01:01;;;;;;;112.50;44.13;;;;;;;-4.03;66.55;99186.02;2281846;78;20907;-83
2022/03/03 02:04:02;;;;;;;115.50;43.83;;;;;;;-4.05;66.60;99191.39;2281855;78;21262;-82
2022/03/03 02:07:02;;;;;;;111.57;42.37;;;;;;;-4.04;66.62;99188.96;2281490;78;20949;-82
2022/03/03 02:10:03;;;;;;;106.67;39.47;;;;;;;-4.02;66.61;99189.96;2281933;78;20879;-83
2022/03/03 02:13:04;;;;;;;99.83;40.87;;;;;;;-3.99;66.84;99192.73;2281823;78;20943;-83
2022/03/03 02:16:04;;;;;;;102.23;40.80;;;;;;;-4.05;66.65;99183.36;2281732;78;20961;-82
2022/03/03 02:19:05;;;;;;;103.63;41.43;;;;;;;-4.11;66.84;99175.26;2281609;78;21333;-83
2022/03/03 02:22:05;;;;;;;101.40;42.43;;;;;;;-4.13;66.87;99184.45;2281871;78;21325;-83
2022/03/03 02:25:08;;;;;;;93.23;40.43;;;;;;;-4.11;66.89;99179.08;2260236;78;21375;-83
2022/03/03 02:28:08;;;;;;;95.03;40.10;;;;;;;-4.10;67.01;99182.52;2281761;78;20957;-83
2022/03/03 02:31:09;;;;;;;106.83;39.93;;;;;;;-4.08;66.72;99174.21;2281864;78;20977;-82
2022/03/03 02:34:09;;;;;;;92.23;39.20;;;;;;;-4.19;66.68;99168.70;2281966;78;21380;-83
2022/03/03 02:37:10;;;;;;;96.83;38.73;;;;;;;-4.23;66.56;99173.08;2281566;78;21337;-83
2022/03/03 02:40:10;;;;;;;88.83;38.43;;;;;;;-4.33;66.49;99165.13;2281669;78;20954;-83
2022/03/03 02:43:11;;;;;;;91.50;38.30;;;;;;;-4.41;66.31;99156.38;2281393;78;20942;-83
2022/03/03 02:46:11;;;;;;;96.20;38.37;;;;;;;-4.49;66.29;99155.42;2281639;78;20938;-83
2022/03/03 02:49:12;;;;;;;91.40;36.27;;;;;;;-4.50;66.72;99136.20;2281908;78;20965;-83
2022/03/03 02:52:12;;;;;;;96.33;38.30;;;;;;;-4.53;66.82;99134.31;2282052;78;20914;-83
2022/03/03 02:55:13;;;;;;;152.07;46.77;;;;;;;-4.58;66.74;99126.72;2289230;78;21360;-81
2022/03/03 02:58:13;;;;;;;171.53;49.23;;;;;;;-4.65;66.86;99121.94;2292077;78;21252;-81
2022/03/03 03:01:14;;;;;;;149.43;46.57;;;;;;;-4.67;67.15;99119.66;2292023;78;20955;-84
2022/03/03 03:04:14;;;;;;;110.90;44.03;;;;;;;-4.64;67.25;99112.62;2291725;78;20913;-81
2022/03/03 03:07:15;;;;;;;238.33;53.53;;;;;;;-4.58;67.43;99109.27;2291952;78;21003;-82
2022/03/03 03:10:16;;;;;;;122.20;44.07;;;;;;;-4.54;67.58;99112.55;2292029;78;21332;-83
2022/03/03 03:13:16;;;;;;;107.67;45.27;;;;;;;-4.52;67.57;99111.88;2292145;78;21312;-83
2022/03/03 03:16:17;;;;;;;106.73;45.73;;;;;;;-4.49;67.68;99111.22;2291828;78;20971;-83
2022/03/03 03:19:17;;;;;;;235.17;54.27;;;;;;;-4.50;67.69;99113.27;2292268;78;20940;-83
2022/03/03 03:22:17;;;;;;;100.53;43.43;;;;;;;-4.51;67.82;99107.29;2292265;78;20916;-82
2022/03/03 03:25:18;;;;;;;139.83;42.43;;;;;;;-4.53;67.91;99103.73;2292006;78;20901;-82
2022/03/03 03:28:18;;;;;;;160.50;48.90;;;;;;;-4.55;67.75;99101.47;2291651;78;20964;-83
2022/03/03 03:31:19;;;;;;;138.10;47.03;;;;;;;-4.62;67.66;99108.16;2292251;78;21400;-83
2022/03/03 03:34:19;;;;;;;109.80;43.10;;;;;;;-4.61;67.99;99103.55;2292125;78;21319;-83
2022/03/03 03:37:20;;;;;;;156.27;49.30;;;;;;;-4.61;67.75;99107.38;2292094;78;21039;-82
2022/03/03 03:40:20;;;;;;;213.87;50.97;;;;;;;-4.66;67.67;99110.35;2291962;78;20944;-83
2022/03/03 03:43:21;;;;;;;148.50;58.80;;;;;;;-4.67;67.93;99108.19;2292073;78;20905;-83
2022/03/03 03:46:21;;;;;;;137.40;56.30;;;;;;;-4.69;68.03;99102.48;2292144;78;20960;-84
2022/03/03 03:49:23;;;;;;;118.93;46.03;;;;;;;-4.69;68.12;99103.76;2292219;78;21342;-83
2022/03/03 03:52:24;;;;;;;116.60;47.00;;;;;;;-4.71;67.53;99098.55;2292301;78;20920;-83
2022/03/03 03:55:24;;;;;;;119.40;43.00;;;;;;;-4.74;67.29;99103.41;2285190;78;20981;-83
2022/03/03 03:58:25;;;;;;;99.03;42.87;;;;;;;-4.74;67.36;99102.52;2281324;78;21349;-83
2022/03/03 04:01:27;;;;;;;217.00;80.83;;;;;;;-4.77;67.77;99104.84;2281129;78;20957;-81
2022/03/03 04:04:29;;;;;;;171.43;52.60;;;;;;;-4.75;67.99;99099.48;2281714;78;20986;-80
2022/03/03 04:07:30;;;;;;;118.17;45.33;;;;;;;-4.77;67.53;99099.75;2281036;78;21439;-82
2022/03/03 04:10:30;;;;;;;116.40;44.77;;;;;;;-4.82;67.61;99099.41;2280583;78;20942;-80
2022/03/03 04:13:31;;;;;;;157.30;47.90;;;;;;;-4.85;67.63;99100.45;2281542;78;20966;-82
2022/03/03 04:16:31;;;;;;;133.50;46.97;;;;;;;-4.89;67.71;99100.98;2281176;78;20954;-83
2022/03/03 04:19:32;;;;;;;99.23;40.80;;;;;;;-4.92;67.75;99105.84;2281443;78;21313;-83
2022/03/03 04:22:32;;;;;;;95.40;40.70;;;;;;;-4.98;68.12;99101.56;2281384;78;21654;-83
2022/03/03 04:25:33;;;;;;;105.80;43.17;;;;;;;-5.03;68.22;99097.39;2280122;78;20992;-83
2022/03/03 04:28:34;;;;;;;106.63;43.63;;;;;;;-5.04;68.51;99096.89;2280138;78;20942;-82
2022/03/03 04:31:34;;;;;;;207.93;52.00;;;;;;;-5.03;68.47;99104.14;2280224;78;20976;-83
2022/03/03 04:34:35;;;;;;;121.30;44.77;;;;;;;-5.05;68.68;99098.94;2280218;78;21013;-84
2022/03/03 04:37:35;;;;;;;100.23;44.53;;;;;;;-5.03;68.31;99103.77;2279811;78;21056;-82
2022/03/03 04:40:36;;;;;;;101.60;44.23;;;;;;;-5.02;68.79;99100.83;2281042;78;20965;-81
2022/03/03 04:43:37;;;;;;;105.90;47.53;;;;;;;-4.99;68.27;99095.59;2281319;78;21352;-80
2022/03/03 04:46:37;;;;;;;119.90;48.87;;;;;;;-5.10;67.81;99091.34;2281177;78;21416;-81
2022/03/03 04:49:41;;;;;;;458.23;75.27;;;;;;;-5.07;68.79;99087.75;2281414;78;20941;-81
2022/03/03 04:52:42;;;;;;;135.07;48.47;;;;;;;-5.08;68.27;99091.45;2280741;78;21602;-81
2022/03/03 04:55:42;;;;;;;180.73;47.87;;;;;;;-5.18;68.51;99086.94;2287181;78;20992;-80
2022/03/03 04:58:44;;;;;;;115.40;46.07;;;;;;;-5.24;68.67;99080.45;2289923;78;20952;-81
2022/03/03 05:01:45;;;;;;;104.33;43.53;;;;;;;-5.29;68.76;99076.28;2289124;78;21091;-80
2022/03/03 05:04:46;;;;;;;102.60;43.53;;;;;;;-5.30;68.90;99073.23;2290580;78;20956;-81
2022/03/03 05:07:46;;;;;;;141.33;60.53;;;;;;;-5.34;68.71;99075.05;2289224;78;21046;-81
2022/03/03 05:10:47;;;;;;;142.07;67.43;;;;;;;-5.38;68.79;99071.77;2291038;78;20959;-81
2022/03/03 05:13:47;;;;;;;118.00;49.60;;;;;;;-5.42;68.37;99071.02;2290929;78;20975;-82
2022/03/03 05:16:48;;;;;;;193.30;51.40;;;;;;;-5.41;68.46;99068.98;2290100;78;21017;-82
2022/03/03 05:19:48;;;;;;;112.83;44.17;;;;;;;-5.42;68.86;99064.66;2291007;78;20928;-82
2022/03/03 05:22:49;;;;;;;104.33;44.17;;;;;;;-5.40;69.09;99069.48;2291159;78;21308;-82
2022/03/03 05:25:50;;;;;;;190.47;52.10;;;;;;;-5.41;69.02;99071.53;2290095;78;21027;-82
2022/03/03 05:28:51;;;;;;;131.30;49.57;;;;;;;-5.41;68.58;99066.44;2290235;78;21374;-81
2022/03/03 05:31:51;;;;;;;129.53;51.47;;;;;;;-5.40;68.68;99068.22;2290100;78;21312;-82
2022/03/03 05:34:52;;;;;;;152.60;51.57;;;;;;;-5.39;68.36;99069.98;2290318;78;20936;-82
2022/03/03 05:37:52;;;;;;;145.80;53.83;;;;;;;-5.36;68.76;99067.68;2290857;78;21034;-82
2022/03/03 05:40:53;;;;;;;136.70;53.33;;;;;;;-5.30;68.78;99066.88;2290285;78;20963;-83
2022/03/03 05:43:53;;;;;;;141.33;50.50;;;;;;;-5.27;68.29;99060.75;2288429;78;20994;-82
2022/03/03 05:46:54;;;;;;;135.30;55.20;;;;;;;-5.24;68.56;99060.09;2287934;78;20987;-81
2022/03/03 05:49:54;;;;;;;143.90;54.10;;;;;;;-5.26;68.08;99061.25;2288613;78;21625;-83
2022/03/03 05:52:59;;;;;;;136.87;55.73;;;;;;;-5.28;68.28;99058.09;2288500;78;21319;-81
2022/03/03 05:55:57;;;;;;;150.60;57.30;;;;;;;-5.29;68.46;99057.59;2280705;77;21077;-81
2022/03/03 05:58:58;;;;;;;151.93;55.40;;;;;;;-5.25;68.27;99059.20;2278723;78;20958;-82
2022/03/03 06:01:58;;;;;;;144.67;57.03;;;;;;;-5.16;68.11;99061.59;2278473;78;20951;-81
2022/03/03 06:04:59;;;;;;;141.70;52.40;;;;;;;-5.09;67.88;99054.93;2278401;78;21024;-81
2022/03/03 06:08:00;;;;;;;165.00;53.63;;;;;;;-4.98;67.94;99051.92;2278335;78;21040;-82
2022/03/03 06:11:00;;;;;;;241.53;56.43;;;;;;;-4.89;67.60;99054.77;2278789;78;21012;-82
2022/03/03 06:14:04;;;;;;;325.30;66.33;;;;;;;-4.69;68.08;99051.16;2279848;78;21072;-80
2022/03/03 06:17:04;;;;;;;174.80;56.10;;;;;;;-4.46;68.25;99044.31;2278810;78;21017;-84
2022/03/03 06:20:05;;;;;;;159.70;54.03;;;;;;;-4.22;68.29;99049.95;2278349;78;21121;-84
2022/03/03 06:23:05;;;;;;;120.67;51.73;;;;;;;-3.97;68.32;99050.94;2278120;78;20949;-83
2022/03/03 06:26:06;;;;;;;153.37;53.63;;;;;;;-3.73;68.10;99038.14;2278196;78;20958;-83
2022/03/03 06:29:06;;;;;;;169.00;61.40;;;;;;;-3.54;67.83;99038.65;2278124;78;21012;-83
2022/03/03 06:32:07;;;;;;;127.63;55.40;;;;;;;-3.33;67.77;99040.16;2278005;78;21373;-82
2022/03/03 06:35:08;;;;;;;135.80;59.10;;;;;;;-3.13;67.67;99021.48;2278091;78;21341;-82
2022/03/03 06:38:08;;;;;;;132.10;59.07;;;;;;;-2.87;67.69;99020.68;2277848;78;20993;-83
2022/03/03 06:41:09;;;;;;;138.50;60.60;;;;;;;-2.61;67.46;99031.84;2278185;78;21899;-81
2022/03/03 06:44:09;;;;;;;131.03;60.87;;;;;;;-2.36;67.27;99027.08;2277806;78;21019;-82
2022/03/03 06:47:10;;;;;;;125.57;63.67;;;;;;;-2.16;66.91;99022.86;2278108;78;21186;-82
2022/03/03 06:50:11;;;;;;;121.97;60.40;;;;;;;-1.95;66.69;99028.05;2278241;78;20969;-83
2022/03/03 06:53:11;;;;;;;127.40;56.60;;;;;;;-1.81;66.24;99025.48;2278933;78;20970;-82
2022/03/03 06:56:15;;;;;;;124.53;60.50;;;;;;;-1.56;66.05;99028.81;2285165;78;21018;-83
2022/03/03 06:59:15;;;;;;;133.77;67.30;;;;;;;-1.49;64.96;99032.63;2288858;78;20926;-80
2022/03/03 07:02:16;;;;;;;140.40;64.23;;;;;;;-1.43;65.05;99031.34;2289508;78;20980;-83
2022/03/03 07:05:16;;;;;;;147.77;72.20;;;;;;;-1.31;64.76;99030.80;2289150;78;20931;-85
2022/03/03 07:08:17;;;;;;;154.70;70.40;;;;;;;-1.13;64.95;99028.86;2288611;78;21027;-83
2022/03/03 07:11:17;;;;;;;140.07;69.37;;;;;;;-1.05;64.43;99029.81;2287925;78;21015;-83
2022/03/03 07:14:18;;;;;;;140.23;70.17;;;;;;;-1.02;64.00;99025.27;2288621;78;21422;-83
2022/03/03 07:17:19;;;;;;;148.20;69.30;;;;;;;-1.14;64.16;99027.09;2288507;78;21359;-82
2022/03/03 07:20:20;;;;;;;145.70;71.50;;;;;;;-1.14;64.29;99030.94;2288105;78;21495;-83
2022/03/03 07:23:21;;;;;;;135.37;67.80;;;;;;;-0.98;64.55;99025.94;2287800;78;20971;-82
2022/03/03 07:26:21;;;;;;;149.27;74.77;;;;;;;-0.80;64.41;99017.20;2288493;78;20952;-82
2022/03/03 07:29:22;;;;;;;150.03;73.63;;;;;;;-0.54;64.13;99013.59;2288044;78;21323;-82
2022/03/03 07:32:22;;;;;;;166.07;79.57;;;;;;;-0.35;63.55;99017.30;2287536;78;20983;-83
2022/03/03 07:35:23;;;;;;;181.10;94.33;;;;;;;-0.17;63.07;99014.89;2287767;78;20983;-83
2022/03/03 07:41:25;;;;;;;137.93;73.63;;;;;;;0.05;62.39;99026.39;2264596;78;20972;-82
2022/03/03 07:44:26;;;;;;;152.90;76.07;;;;;;;0.11;62.12;99016.45;2289068;78;21822;-82
2022/03/03 07:47:27;;;;;;;148.20;74.43;;;;;;;0.20;62.37;99012.71;2288356;78;20971;-82
2022/03/03 07:50:28;;;;;;;153.03;78.47;;;;;;;0.35;62.04;99010.50;2288368;78;21055;-82
2022/03/03 07:53:28;;;;;;;159.37;80.43;;;;;;;0.58;62.10;99001.94;2290566;78;21669;-82
2022/03/03 07:56:29;;;;;;;144.37;75.67;;;;;;;0.78;61.39;98995.69;2282744;78;21009;-82
2022/03/03 07:59:30;;;;;;;162.67;81.93;;;;;;;0.95;60.79;98998.77;2280122;78;21041;-82
2022/03/03 08:02:31;;;;;;;132.83;70.77;;;;;;;1.08;60.65;99003.73;2279255;78;20954;-81
2022/03/03 08:05:31;;;;;;;140.77;72.63;;;;;;;1.24;60.09;99001.53;2280276;78;20961;-80
2022/03/03 08:08:32;;;;;;;136.53;71.97;;;;;;;1.45;59.79;99006.88;2278480;78;21711;-81
2022/03/03 08:11:32;;;;;;;124.90;65.63;;;;;;;1.55;59.29;99003.55;2277793;78;21401;-82
2022/03/03 08:14:33;;;;;;;118.17;61.40;;;;;;;1.69;59.29;98994.34;2278861;78;21317;-83
2022/03/03 08:17:34;;;;;;;141.43;72.07;;;;;;;1.88;59.20;98999.60;2278950;78;21290;-81
2022/03/03 08:20:34;;;;;;;123.90;64.90;;;;;;;2.02;58.58;98998.97;2279152;78;21032;-84
2022/03/03 08:23:35;;;;;;;116.63;60.83;;;;;;;2.14;58.77;98996.98;2278040;78;21357;-82
2022/03/03 08:26:35;;;;;;;97.70;55.80;;;;;;;2.25;58.28;99003.52;2277735;78;21416;-83
2022/03/03 08:29:36;;;;;;;100.80;57.23;;;;;;;2.35;57.84;98995.41;2277578;78;21402;-82
2022/03/03 08:32:37;;;;;;;111.80;58.57;;;;;;;2.54;57.28;98995.44;2278049;78;20993;-83
2022/03/03 08:35:39;;;;;;;94.23;52.43;;;;;;;2.58;56.77;98998.15;2277822;78;20996;-83
2022/03/03 08:38:40;;;;;;;134.17;58.20;;;;;;;2.70;56.25;98991.01;2278106;78;21336;-83
2022/03/03 08:41:41;;;;;;;104.00;59.23;;;;;;;2.94;57.02;98985.65;2278487;78;20985;-82
2022/03/03 08:44:42;;;;;;;116.10;60.67;;;;;;;3.19;55.82;98983.72;2278468;78;21057;-83
2022/03/03 08:47:42;;;;;;;99.27;54.00;;;;;;;3.30;55.52;98983.77;2278067;78;20977;-83
2022/03/03 08:50:43;;;;;;;101.10;54.23;;;;;;;3.49;55.47;98979.01;2277686;78;20954;-83
2022/03/03 08:53:44;;;;;;;108.13;59.07;;;;;;;3.65;54.65;98983.10;2278086;78;20993;-79
2022/03/03 08:56:44;;;;;;;91.43;50.67;;;;;;;3.90;54.63;98982.39;2254949;77;21011;-82
2022/03/03 09:02:50;;;;;;;85.37;47.63;;;;;;;4.40;52.79;98967.61;2219340;79;21950;-82
2022/03/03 09:05:52;;;;;;;83.17;45.73;;;;;;;4.54;52.34;98964.25;2245725;79;20984;-82
2022/03/03 09:08:52;;;;;;;80.60;45.77;;;;;;;4.68;51.15;98969.52;2246279;78;21034;-82
2022/03/03 09:11:53;;;;;;;68.87;41.23;;;;;;;4.97;51.86;98970.16;2246341;79;20983;-82
2022/03/03 09:14:53;;;;;;;67.83;39.67;;;;;;;5.25;49.76;98965.98;2246087;79;21016;-82
2022/03/03 09:17:54;;;;;;;71.53;39.23;;;;;;;5.40;48.07;98971.69;2245591;79;20937;-83
2022/03/03 09:20:55;;;;;;;71.90;39.63;;;;;;;5.31;48.07;98970.96;2246412;79;20980;-82
2022/03/03 09:23:55;;;;;;;72.00;41.63;;;;;;;5.23;48.87;98971.52;2246223;79;20955;-82
2022/03/03 09:26:56;;;;;;;58.23;34.73;;;;;;;5.23;49.18;98965.05;2246250;79;20979;-84
2022/03/03 09:29:58;;;;;;;774.83;77.17;;;;;;;5.29;46.40;98963.97;2225700;79;21026;-82
2022/03/03 09:32:59;;;;;;;50.97;29.97;;;;;;;5.43;46.65;98965.32;2246537;79;20951;-81
2022/03/03 09:35:59;;;;;;;49.67;31.13;;;;;;;5.59;43.75;98964.13;2247647;78;21019;-83
2022/03/03 09:39:00;;;;;;;51.27;33.47;;;;;;;5.61;43.69;98974.12;2246738;78;21043;-83
2022/03/03 09:42:00;;;;;;;44.23;29.87;;;;;;;5.68;44.48;98964.42;2246331;78;20940;-83
2022/03/03 09:45:01;;;;;;;57.13;32.33;;;;;;;5.80;44.36;98971.72;2246226;78;20952;-83
2022/03/03 09:48:05;;;;;;;53.53;33.27;;;;;;;5.65;43.65;98965.63;2245764;79;21788;-83
2022/03/03 09:51:04;;;;;;;53.40;30.67;;;;;;;5.75;43.19;98974.16;2245521;79;21014;-82
2022/03/03 09:54:04;;;;;;;43.77;26.77;;;;;;;6.03;41.72;98972.08;2246617;78;20979;-81
2022/03/03 09:57:05;;;;;;;180.47;32.43;;;;;;;6.18;41.25;98967.81;2271062;78;21033;-81
2022/03/03 10:00:07;;;;;;;46.40;28.50;;;;;;;6.25;39.98;98964.17;2280142;78;21445;-82
2022/03/03 10:03:10;;;;;;;42.33;28.23;;;;;;;6.12;41.38;98963.74;2279003;78;21056;-81
2022/03/03 10:06:11;;;;;;;39.43;26.20;;;;;;;6.05;40.81;98967.81;2280342;78;21385;-82
2022/03/03 10:09:11;;;;;;;49.37;28.47;;;;;;;5.87;39.77;98965.91;2280098;78;20978;-81
2022/03/03 10:12:12;;;;;;;54.67;32.43;;;;;;;5.71;40.60;98963.23;2280308;78;20977;-79
2022/03/03 10:15:12;;;;;;;53.33;31.90;;;;;;;5.58;40.92;98958.06;2278039;78;21451;-81
2022/03/03 10:18:13;;;;;;;55.23;33.60;;;;;;;5.58;41.52;98961.06;2278541;78;20950;-79
2022/03/03 10:21:13;;;;;;;51.97;30.90;;;;;;;5.69;42.66;98941.17;2278676;78;20977;-82
2022/03/03 10:24:14;;;;;;;59.47;34.67;;;;;;;5.85;41.67;98952.02;2277704;78;20985;-82
2022/03/03 10:27:15;;;;;;;51.23;31.27;;;;;;;5.95;41.98;98943.74;2278468;78;20957;-83
2022/03/03 10:30:15;;;;;;;53.20;30.93;;;;;;;6.09;42.50;98941.20;2278699;78;20954;-82
2022/03/03 10:33:16;;;;;;;49.43;29.93;;;;;;;6.24;41.91;98940.79;2278491;78;20982;-83
2022/03/03 10:36:16;;;;;;;52.97;30.00;;;;;;;6.33;40.83;98934.17;2278006;78;21008;-83
2022/03/03 10:39:17;;;;;;;38.83;24.90;;;;;;;6.27;40.28;98939.17;2279234;78;21448;-84
2022/03/03 10:42:18;;;;;;;37.40;24.57;;;;;;;6.29;39.51;98928.84;2279384;78;20981;-83
2022/03/03 10:45:19;;;;;;;37.53;24.47;;;;;;;6.28;38.79;98925.38;2278074;78;21008;-83
2022/03/03 10:48:19;;;;;;;36.40;23.10;;;;;;;6.31;38.65;98925.88;2277734;78;21000;-83
2022/03/03 10:51:24;;;;;;;40.43;24.57;;;;;;;6.25;37.66;98929.17;2278001;78;20986;-81
2022/03/03 10:54:22;;;;;;;39.63;25.77;;;;;;;6.29;37.11;98924.55;2277483;78;21116;-83
2022/03/03 10:57:23;;;;;;;36.97;25.57;;;;;;;6.39;37.61;98916.20;2254441;77;21438;-83
2022/03/03 11:00:23;;;;;;;34.17;22.17;;;;;;;6.49;36.88;98912.58;2247368;79;20956;-82
2022/03/03 11:03:24;;;;;;;35.67;23.33;;;;;;;6.46;36.28;98916.38;2245808;78;20967;-82
2022/03/03 11:06:24;;;;;;;34.07;21.47;;;;;;;6.48;36.20;98911.70;2245369;78;20999;-82
2022/03/03 11:09:25;;;;;;;71.13;23.37;;;;;;;6.57;36.24;98911.09;2244446;78;21521;-80
2022/03/03 11:12:27;;;;;;;39.40;25.67;;;;;;;6.57;35.43;98906.77;2245193;79;20983;-85
2022/03/03 11:15:32;;;;;;;44.80;27.47;;;;;;;6.44;36.46;98911.15;2245657;79;21387;-83
2022/03/03 11:18:32;;;;;;;53.57;26.00;;;;;;;6.32;37.85;98893.52;2246066;79;20986;-82
2022/03/03 11:21:33;;;;;;;45.30;28.10;;;;;;;6.32;37.85;98893.52;2246070;79;20948;-84
2022/03/03 11:24:34;;;;;;;77.33;28.27;;;;;;;6.31;37.91;98896.07;2246654;78;20978;-82
2022/03/03 11:27:34;;;;;;;48.60;30.13;;;;;;;6.19;37.99;98895.30;2245772;79;21207;-83
2022/03/03 11:30:35;;;;;;;61.57;32.27;;;;;;;6.15;38.39;98900.34;2246941;79;20940;-81
2022/03/03 11:33:41;;;;;;;113.23;31.90;;;;;;;5.93;38.29;98903.53;2246870;79;21055;-83
2022/03/03 11:36:38;;;;;;;46.03;27.67;;;;;;;5.78;39.04;98902.14;2245256;79;21078;-82
2022/03/03 11:39:39;;;;;;;45.03;26.37;;;;;;;5.72;38.96;98893.77;2246167;79;21090;-83
2022/03/03 11:42:39;;;;;;;61.43;28.50;;;;;;;5.68;39.20;98890.20;2245970;79;21007;-79
2022/03/03 11:45:42;;;;;;;53.10;31.77;;;;;;;7.54;46.00;98876.48;2246568;79;20905;-82
2022/03/03 11:48:42;;;;;;;47.83;29.60;;;;;;;8.68;36.51;98875.20;2248562;79;21055;-81
2022/03/03 11:51:43;;;;;;;52.47;29.60;;;;;;;7.58;37.09;98875.72;2248276;78;21312;-82
2022/03/03 11:54:43;;;;;;;43.50;26.67;;;;;;;6.91;37.64;98875.28;2246964;79;20991;-81
2022/03/03 11:57:43;;;;;;;45.40;28.50;;;;;;;6.41;38.14;98872.17;2248325;77;20940;-81
2022/03/03 12:00:44;;;;;;;51.70;32.00;;;;;;;6.07;38.90;98869.02;2248237;79;20948;-81
2022/03/03 12:03:44;;;;;;;48.80;29.60;;;;;;;6.14;39.47;98868.77;2248830;78;20943;-81
2022/03/03 12:06:47;;;;;;;50.97;29.80;;;;;;;6.23;39.40;98859.97;2247092;79;20992;-81
2022/03/03 12:09:49;;;;;;;47.77;28.70;;;;;;;6.34;39.19;98852.09;2218954;79;21093;-82
2022/03/03 12:12:51;;;;;;;47.80;30.50;;;;;;;6.48;39.46;98849.87;2224872;79;20999;-80
2022/03/03 12:15:52;;;;;;;46.83;29.57;;;;;;;6.54;38.45;98848.75;2246633;78;21199;-81
2022/03/03 12:18:52;;;;;;;91.80;29.67;;;;;;;6.73;39.22;98838.47;2247652;79;20994;-81
2022/03/03 12:21:53;;;;;;;47.50;29.33;;;;;;;7.07;39.18;98841.55;2246129;79;20943;-80
2022/03/03 12:24:53;;;;;;;41.73;27.63;;;;;;;7.47;38.32;98837.80;2246067;78;21002;-81
2022/03/03 12:27:54;;;;;;;37.27;24.57;;;;;;;7.63;37.58;98828.22;2246151;79;20984;-81
2022/03/03 12:30:54;;;;;;;44.53;27.23;;;;;;;7.93;35.79;98835.86;2246707;78;21002;-82
2022/03/03 12:33:55;;;;;;;46.43;25.10;;;;;;;7.78;36.22;98830.72;2246155;79;21014;-81
2022/03/03 12:36:55;;;;;;;43.33;27.83;;;;;;;7.66;36.40;98822.22;2245345;78;20999;-80
2022/03/03 12:39:56;;;;;;;46.47;29.10;;;;;;;7.63;37.01;98819.13;2246075;79;21338;-80
2022/03/03 12:42:56;;;;;;;72.03;27.77;;;;;;;7.68;36.67;98827.91;2246030;79;20967;-81
2022/03/03 12:45:58;;;;;;;47.87;29.37;;;;;;;7.57;36.05;98828.08;2246068;79;20955;-80
2022/03/03 12:48:59;;;;;;;40.27;26.17;;;;;;;7.53;36.70;98823.66;2246675;79;21035;-82
2022/03/03 12:51:59;;;;;;;48.20;26.00;;;;;;;7.31;36.00;98817.08;2246395;78;20956;-82
2022/03/03 12:55:00;;;;;;;39.60;26.30;;;;;;;7.23;36.34;98820.33;2246886;78;21431;-82
2022/03/03 12:58:00;;;;;;;46.10;28.57;;;;;;;7.38;36.04;98821.12;2279900;77;20995;-80
2022/03/03 13:01:01;;;;;;;42.03;27.00;;;;;;;7.29;36.79;98821.78;2288733;78;20999;-81
2022/03/03 13:04:03;;;;;;;41.53;27.07;;;;;;;7.16;36.42;98817.13;2290786;78;20900;-82
2022/03/03 13:07:05;;;;;;;40.23;28.00;;;;;;;6.93;37.29;98819.98;2289108;78;20984;-82
2022/03/03 13:10:05;;;;;;;59.17;27.90;;;;;;;6.78;37.84;98823.48;2288721;78;21015;-82
2022/03/03 13:13:06;;;;;;;40.80;23.57;;;;;;;6.61;37.91;98750.83;2288748;78;21054;-83
2022/03/03 13:16:06;;;;;;;39.27;25.77;;;;;;;6.96;37.49;98811.44;2288503;78;20972;-83
2022/03/03 13:19:07;;;;;;;37.80;25.83;;;;;;;6.73;37.88;98806.91;2288322;78;20983;-82
2022/03/03 13:22:07;;;;;;;48.40;28.97;;;;;;;6.45;38.54;98807.89;2288748;78;20959;-82
2022/03/03 13:25:08;;;;;;;49.37;29.70;;;;;;;6.19;38.49;98808.88;2288968;78;20944;-83
2022/03/03 13:28:09;;;;;;;45.67;27.87;;;;;;;5.92;39.14;98814.98;2289354;78;20968;-83
2022/03/03 13:31:09;;;;;;;49.07;29.83;;;;;;;5.62;39.87;98812.32;2289765;78;20978;-83
2022/03/03 13:34:12;;;;;;;55.53;31.00;;;;;;;5.39;40.47;98804.26;2288799;78;21666;-80
2022/03/03 13:37:12;;;;;;;48.57;28.67;;;;;;;5.21;41.17;98811.44;2288584;77;21069;-82
2022/03/03 13:40:12;;;;;;;58.57;31.97;;;;;;;5.07;41.48;98799.31;2288807;78;21042;-82
2022/03/03 13:43:13;;;;;;;52.70;31.27;;;;;;;4.94;42.04;98798.03;2288655;78;20952;-83
2022/03/03 13:46:13;;;;;;;68.47;38.10;;;;;;;4.88;42.40;98790.06;2288735;78;20994;-81
2022/03/03 13:49:14;;;;;;;76.90;41.37;;;;;;;4.86;42.65;98794.31;2289096;78;20956;-82
2022/03/03 13:52:14;;;;;;;69.30;39.37;;;;;;;4.84;42.78;98791.20;2288892;78;21330;-82
2022/03/03 13:55:15;;;;;;;59.63;34.23;;;;;;;4.86;42.98;98794.31;2289048;78;20960;-83